createdAt,value
2023-04-16T00:02:01.120Z,4.91
2023-04-16T00:04:28.285Z,4.90
2023-04-16T00:06:55.644Z,4.95
2023-04-16T00:09:22.651Z,4.92
2023-04-16T00:11:49.523Z,4.91
2023-04-16T00:14:16.420Z,4.93
2023-04-16T00:16:43.282Z,4.96
2023-04-16T00:19:10.345Z,5.01
2023-04-16T00:21:37.610Z,5.12
2023-04-16T00:24:04.488Z,5.13
2023-04-16T00:26:31.827Z,5.14
2023-04-16T00:28:58.786Z,4.96
2023-04-16T00:31:29.697Z,4.85
2023-04-16T00:33:56.854Z,4.86
2023-04-16T00:36:24.597Z,5.02
2023-04-16T00:38:51.649Z,5.14
2023-04-16T00:41:18.593Z,5.21
2023-04-16T00:43:46.416Z,5.21
2023-04-16T00:46:13.438Z,5.23
2023-04-16T00:48:41.160Z,5.14
2023-04-16T00:51:08.632Z,5.07
2023-04-16T00:53:35.711Z,5.06
2023-04-16T00:56:03.765Z,5.07
2023-04-16T00:58:30.912Z,5.05
2023-04-16T01:00:57.989Z,5.02
2023-04-16T01:03:25.872Z,4.99
2023-04-16T01:05:52.923Z,5.03
2023-04-16T01:08:21.808Z,5.05
2023-04-16T01:10:48.703Z,5.07
2023-04-16T01:13:15.627Z,5.08
2023-04-16T01:15:42.547Z,5.13
2023-04-16T01:18:16.823Z,5.17
2023-04-16T01:20:44.224Z,5.19
2023-04-16T01:23:11.932Z,5.15
2023-04-16T01:25:39.346Z,5.12
2023-04-16T01:28:06.658Z,5.06
2023-04-16T01:30:33.537Z,4.99
2023-04-16T01:33:01.757Z,4.92
2023-04-16T01:35:28.871Z,4.90
2023-04-16T01:37:56.062Z,4.91
2023-04-16T01:40:22.973Z,4.95
2023-04-16T01:42:50.017Z,4.98
2023-04-16T01:45:16.846Z,5.00
2023-04-16T01:47:44.018Z,5.12
2023-04-16T01:50:11.058Z,5.19
2023-04-16T01:52:38.137Z,5.13
2023-04-16T01:55:05.284Z,5.14
2023-04-16T01:57:32.238Z,5.16
2023-04-16T01:59:59.115Z,5.11
2023-04-16T02:02:28.535Z,5.20
2023-04-16T02:04:55.393Z,5.25
2023-04-16T02:07:22.226Z,5.33
2023-04-16T02:09:51.025Z,5.43
2023-04-16T02:12:18.122Z,5.47
2023-04-16T02:14:45.130Z,5.51
2023-04-16T02:17:12.351Z,5.52
2023-04-16T02:19:39.425Z,5.45
2023-04-16T02:22:07.214Z,5.46
2023-04-16T02:24:34.173Z,5.43
2023-04-16T02:27:01.792Z,5.33
2023-04-16T02:29:28.692Z,5.32
2023-04-16T02:31:55.597Z,5.34
2023-04-16T02:34:22.798Z,5.39
2023-04-16T02:36:49.700Z,5.47
2023-04-16T02:39:16.989Z,5.48
2023-04-16T02:41:43.960Z,5.47
2023-04-16T02:44:10.896Z,5.43
2023-04-16T02:46:38.064Z,5.40
2023-04-16T02:49:05.032Z,5.37
2023-04-16T02:51:33.637Z,5.34
2023-04-16T02:54:01.212Z,5.29
2023-04-16T02:56:28.057Z,5.26
2023-04-16T02:58:55.098Z,5.14
2023-04-16T03:01:21.938Z,5.10
2023-04-16T03:03:48.938Z,5.09
2023-04-16T03:06:15.895Z,5.09
2023-04-16T03:08:42.976Z,5.05
2023-04-16T03:11:10.014Z,5.01
2023-04-16T03:13:36.912Z,5.05
2023-04-16T03:16:03.915Z,5.01
2023-04-16T03:18:30.873Z,4.96
2023-04-16T03:20:57.886Z,4.92
2023-04-16T03:23:24.746Z,4.87
2023-04-16T03:25:51.577Z,4.80
2023-04-16T03:28:18.518Z,4.86
2023-04-16T03:30:52.075Z,4.93
2023-04-16T03:33:19.886Z,4.99
2023-04-16T03:35:46.917Z,4.99
2023-04-16T03:38:13.867Z,5.01
2023-04-16T03:40:41.451Z,4.99
2023-04-16T03:43:08.333Z,5.02
2023-04-16T03:45:35.361Z,5.02
2023-04-16T03:48:02.278Z,4.99
2023-04-16T03:50:29.261Z,5.03
2023-04-16T03:52:56.181Z,5.09
2023-04-16T03:55:23.036Z,5.14
2023-04-16T03:57:49.988Z,5.12
2023-04-16T04:00:16.935Z,5.08
2023-04-16T04:02:44.110Z,5.03
2023-04-16T04:05:11.227Z,5.07
2023-04-16T04:07:38.170Z,5.09
2023-04-16T04:10:05.639Z,5.10
2023-04-16T04:12:32.584Z,5.12
2023-04-16T04:14:59.458Z,5.11
2023-04-16T04:17:26.424Z,5.14
2023-04-16T04:20:01.312Z,5.13
2023-04-16T04:22:29.148Z,5.11
2023-04-16T04:24:56.108Z,5.08
2023-04-16T04:27:23.001Z,5.03
2023-04-16T04:29:50.003Z,4.98
2023-04-16T04:32:16.933Z,4.99
2023-04-16T04:34:43.846Z,4.95
2023-04-16T04:37:10.691Z,4.94
2023-04-16T04:39:37.558Z,4.91
2023-04-16T04:42:04.474Z,4.86
2023-04-16T04:44:31.507Z,4.90
2023-04-16T04:46:58.515Z,4.90
2023-04-16T04:49:25.394Z,4.94
2023-04-16T04:51:52.351Z,4.95
2023-04-16T04:54:19.184Z,4.96
2023-04-16T04:56:46.840Z,4.96
2023-04-16T04:59:13.743Z,4.97
2023-04-16T05:01:41.456Z,5.07
2023-04-16T05:04:08.513Z,5.07
2023-04-16T05:06:35.702Z,5.08
2023-04-16T05:09:02.871Z,5.16
2023-04-16T05:11:30.037Z,5.15
2023-04-16T05:13:57.205Z,5.11
2023-04-16T05:16:24.340Z,5.07
2023-04-16T05:18:51.314Z,4.97
2023-04-16T05:21:18.270Z,4.86
2023-04-16T05:23:45.102Z,4.91
2023-04-16T05:26:12.000Z,4.88
2023-04-16T05:28:38.953Z,4.98
2023-04-16T05:31:05.786Z,4.98
2023-04-16T05:33:32.852Z,4.98
2023-04-16T05:35:59.825Z,4.93
2023-04-16T05:38:26.674Z,4.87
2023-04-16T05:40:53.597Z,4.87
2023-04-16T05:43:20.648Z,4.86
2023-04-16T05:45:47.484Z,4.84
2023-04-16T05:48:14.821Z,4.85
2023-04-16T05:50:41.723Z,4.84
2023-04-16T05:53:09.336Z,4.79
2023-04-16T05:55:37.163Z,4.79
2023-04-16T05:58:07.024Z,4.76
2023-04-16T06:00:33.859Z,4.74
2023-04-16T06:03:01.558Z,4.77
2023-04-16T06:05:29.411Z,4.76
2023-04-16T06:07:56.677Z,4.79
2023-04-16T06:10:23.686Z,4.86
2023-04-16T06:12:50.621Z,4.86
2023-04-16T06:15:17.614Z,4.90
2023-04-16T06:17:44.619Z,4.97
2023-04-16T06:20:14.610Z,5.03
2023-04-16T06:22:41.406Z,5.03
2023-04-16T06:25:09.639Z,4.97
2023-04-16T06:27:36.823Z,5.08
2023-04-16T06:30:03.863Z,5.11
2023-04-16T06:32:30.949Z,5.15
2023-04-16T06:34:59.075Z,5.18
2023-04-16T06:37:26.018Z,5.15
2023-04-16T06:39:53.025Z,5.14
2023-04-16T06:42:20.479Z,5.24
2023-04-16T06:44:47.965Z,5.35
2023-04-16T06:47:14.857Z,5.33
2023-04-16T06:49:41.792Z,5.34
2023-04-16T06:52:08.799Z,5.39
2023-04-16T06:54:36.137Z,5.40
2023-04-16T06:57:03.104Z,5.36
2023-04-16T06:59:30.085Z,5.27
2023-04-16T07:01:57.255Z,5.21
2023-04-16T07:04:24.436Z,5.19
2023-04-16T07:06:51.560Z,5.20
2023-04-16T07:09:18.544Z,5.22
2023-04-16T07:11:45.525Z,5.27
2023-04-16T07:14:12.493Z,5.28
2023-04-16T07:16:39.488Z,5.31
2023-04-16T07:19:06.456Z,5.36
2023-04-16T07:21:33.362Z,5.36
2023-04-16T07:24:01.123Z,5.45
2023-04-16T07:26:28.078Z,5.51
2023-04-16T07:28:54.909Z,5.53
2023-04-16T07:31:22.177Z,5.53
2023-04-16T07:33:49.165Z,5.56
2023-04-16T07:36:16.049Z,5.61
2023-04-16T07:38:42.882Z,5.59
2023-04-16T07:41:09.796Z,5.62
2023-04-16T07:43:36.854Z,5.69
2023-04-16T07:46:03.798Z,5.73
2023-04-16T07:48:30.847Z,5.82
2023-04-16T07:50:58.040Z,5.86
2023-04-16T07:53:24.892Z,5.90
2023-04-16T07:55:51.735Z,5.98
2023-04-16T07:58:18.624Z,6.06
2023-04-16T08:00:46.083Z,6.18
2023-04-16T08:03:13.057Z,6.31
2023-04-16T08:05:40.302Z,6.49
2023-04-16T08:08:07.205Z,6.70
2023-04-16T08:10:34.269Z,6.85
2023-04-16T08:13:02.137Z,6.97
2023-04-16T08:15:29.654Z,7.08
2023-04-16T08:17:56.685Z,7.16
2023-04-16T08:20:23.718Z,7.20
2023-04-16T08:22:50.612Z,7.20
2023-04-16T08:25:17.598Z,7.15
2023-04-16T08:27:44.507Z,7.09
2023-04-16T08:30:11.507Z,7.15
2023-04-16T08:32:38.569Z,7.16
2023-04-16T08:35:06.206Z,7.24
2023-04-16T08:37:33.092Z,7.41
2023-04-16T08:40:01.191Z,7.56
2023-04-16T08:42:45.449Z,7.67
2023-04-16T08:45:19.702Z,7.79
2023-04-16T08:47:48.176Z,7.84
2023-04-16T08:50:23.290Z,7.91
2023-04-16T08:53:11.268Z,7.93
2023-04-16T08:55:40.616Z,7.90
2023-04-16T08:58:18.339Z,8.06
2023-04-16T09:00:46.646Z,8.22
2023-04-16T09:03:13.802Z,8.29
2023-04-16T09:05:41.165Z,8.19
2023-04-16T09:08:08.205Z,8.18
2023-04-16T09:10:35.196Z,8.07
2023-04-16T09:13:02.210Z,8.01
2023-04-16T09:15:29.798Z,7.91
2023-04-16T09:17:57.925Z,8.10
2023-04-16T09:20:25.092Z,8.15
2023-04-16T09:22:51.945Z,8.23
2023-04-16T09:25:20.991Z,8.36
2023-04-16T09:27:50.175Z,8.44
2023-04-16T09:30:27.925Z,8.57
2023-04-16T09:33:22.810Z,8.64
2023-04-16T09:35:52.097Z,8.69
2023-04-16T09:38:20.078Z,8.67
2023-04-16T09:40:49.827Z,8.70
2023-04-16T09:43:18.327Z,8.67
2023-04-16T09:45:52.310Z,8.76
2023-04-16T09:48:32.618Z,8.82
2023-04-16T09:51:00.780Z,8.88
2023-04-16T09:53:31.410Z,8.83
2023-04-16T09:56:06.307Z,8.80
2023-04-16T09:58:33.521Z,8.78
2023-04-16T10:01:10.769Z,8.89
2023-04-16T10:03:40.038Z,9.12
2023-04-16T10:06:21.308Z,9.31
2023-04-16T10:08:50.229Z,9.53
2023-04-16T10:11:17.824Z,9.71
2023-04-16T10:13:44.754Z,9.75
2023-04-16T10:16:11.829Z,9.76
2023-04-16T10:18:42.715Z,9.65
2023-04-16T10:21:12.277Z,9.51
2023-04-16T10:23:42.964Z,9.43
2023-04-16T10:26:09.962Z,9.34
2023-04-16T10:28:37.242Z,9.32
2023-04-16T10:31:06.176Z,9.28
2023-04-16T10:33:35.053Z,9.13
2023-04-16T10:36:15.674Z,9.00
2023-04-16T10:38:46.798Z,9.03
2023-04-16T10:41:14.077Z,9.06
2023-04-16T10:43:48.016Z,9.12
2023-04-16T10:46:31.083Z,9.11
2023-04-16T10:49:01.332Z,9.18
2023-04-16T10:51:31.926Z,9.36
2023-04-16T10:54:23.450Z,9.43
2023-04-16T10:56:50.892Z,9.52
2023-04-16T10:59:21.913Z,9.53
2023-04-16T11:01:56.882Z,9.57
2023-04-16T11:04:24.034Z,9.62
2023-04-16T11:07:15.637Z,9.66
2023-04-16T11:10:04.401Z,9.61
2023-04-16T11:12:35.141Z,9.60
2023-04-16T11:15:06.505Z,9.53
2023-04-16T11:17:40.610Z,9.58
2023-04-16T11:20:18.977Z,9.60
2023-04-16T11:22:48.321Z,9.52
2023-04-16T11:25:30.155Z,9.51
2023-04-16T11:27:59.373Z,9.59
2023-04-16T11:30:37.005Z,9.65
2023-04-16T11:33:12.930Z,9.70
2023-04-16T11:35:39.943Z,9.78
2023-04-16T11:38:07.815Z,9.77
2023-04-16T11:40:35.040Z,9.62
2023-04-16T11:43:17.547Z,9.52
2023-04-16T11:46:00.660Z,9.42
2023-04-16T11:48:48.106Z,9.30
2023-04-16T11:51:15.308Z,9.24
2023-04-16T11:53:53.316Z,9.22
2023-04-16T11:56:31.320Z,9.28
2023-04-16T11:59:09.039Z,9.19
2023-04-16T12:01:37.075Z,9.23
2023-04-16T12:04:04.498Z,9.20
2023-04-16T12:06:33.235Z,9.22
2023-04-16T12:09:25.854Z,9.30
2023-04-16T12:11:53.321Z,9.33
2023-04-16T12:14:20.547Z,9.33
2023-04-16T12:17:50.976Z,9.34
2023-04-16T12:20:17.812Z,9.37
2023-04-16T12:22:49.803Z,9.40
2023-04-16T12:25:18.397Z,9.39
2023-04-16T12:27:53.411Z,9.36
2023-04-16T12:30:22.814Z,9.32
2023-04-16T12:33:14.968Z,9.18
2023-04-16T12:35:43.665Z,9.20
2023-04-16T12:38:10.889Z,9.21
2023-04-16T12:40:38.768Z,9.08
2023-04-16T12:43:05.681Z,9.06
2023-04-16T12:45:32.584Z,9.07
2023-04-16T12:47:59.660Z,9.11
2023-04-16T12:50:26.596Z,9.10
2023-04-16T12:52:53.481Z,9.18
2023-04-16T12:55:20.350Z,9.16
2023-04-16T12:57:49.206Z,9.03
2023-04-16T13:00:16.484Z,8.93
2023-04-16T13:02:43.421Z,8.87
2023-04-16T13:05:10.552Z,8.96
2023-04-16T13:07:37.634Z,8.92
2023-04-16T13:10:05.818Z,9.00
2023-04-16T13:12:32.997Z,8.96
2023-04-16T13:14:59.964Z,8.92
2023-04-16T13:17:26.795Z,8.77
2023-04-16T13:19:54.047Z,8.61
2023-04-16T13:22:21.009Z,8.44
2023-04-16T13:24:48.050Z,8.47
2023-04-16T13:27:16.518Z,8.47
2023-04-16T13:29:43.537Z,8.27
2023-04-16T13:32:10.507Z,8.17
2023-04-16T13:34:37.401Z,8.10
2023-04-16T13:37:04.852Z,8.10
2023-04-16T13:39:31.671Z,8.03
2023-04-16T13:41:58.640Z,8.07
2023-04-16T13:44:25.793Z,8.02
2023-04-16T13:46:53.157Z,7.98
2023-04-16T13:49:20.414Z,8.01
2023-04-16T13:51:47.333Z,8.03
2023-04-16T13:54:14.235Z,8.03
2023-04-16T13:56:41.088Z,7.94
2023-04-16T13:59:08.491Z,7.84
2023-04-16T14:01:36.073Z,7.78
2023-04-16T14:04:06.782Z,7.72
2023-04-16T14:06:34.737Z,7.67
2023-04-16T14:09:02.209Z,7.63
2023-04-16T14:11:29.177Z,7.62
2023-04-16T14:13:56.084Z,7.62
2023-04-16T14:16:23.357Z,7.62
2023-04-16T14:18:52.152Z,7.65
2023-04-16T14:21:19.465Z,7.73
2023-04-16T14:23:47.102Z,7.74
2023-04-16T14:26:13.998Z,7.72
2023-04-16T14:28:41.339Z,7.72
2023-04-16T14:31:08.329Z,7.66
2023-04-16T14:33:35.188Z,7.57
2023-04-16T14:36:03.338Z,7.53
2023-04-16T14:38:31.463Z,7.49
2023-04-16T14:40:58.540Z,7.52
2023-04-16T14:43:25.562Z,7.53
2023-04-16T14:45:52.952Z,7.61
2023-04-16T14:48:20.056Z,7.68
2023-04-16T14:50:47.113Z,7.87
2023-04-16T14:53:14.019Z,7.94
2023-04-16T14:55:40.915Z,7.93
2023-04-16T14:58:07.799Z,7.82
2023-04-16T15:00:35.757Z,7.78
2023-04-16T15:03:02.813Z,7.74
2023-04-16T15:05:31.042Z,7.67
2023-04-16T15:07:57.995Z,7.69
2023-04-16T15:10:25.001Z,7.70
2023-04-16T15:12:51.857Z,7.75
2023-04-16T15:15:18.923Z,7.82
2023-04-16T15:17:46.044Z,7.73
2023-04-16T15:20:13.281Z,7.69
2023-04-16T15:22:40.472Z,7.64
2023-04-16T15:25:08.267Z,7.64
2023-04-16T15:27:35.223Z,7.56
2023-04-16T15:30:02.222Z,7.69
2023-04-16T15:32:29.349Z,7.73
2023-04-16T15:34:56.366Z,7.70
2023-04-16T15:37:24.175Z,7.65
2023-04-16T15:39:51.138Z,7.75
2023-04-16T15:42:18.363Z,7.83
2023-04-16T15:44:45.674Z,7.90
2023-04-16T15:47:12.598Z,7.89
2023-04-16T15:49:39.662Z,7.87
2023-04-16T15:52:07.147Z,7.80
2023-04-16T15:54:34.166Z,7.63
2023-04-16T15:57:01.957Z,7.57
2023-04-16T15:59:28.896Z,7.52
2023-04-16T16:01:55.964Z,7.56
2023-04-16T16:04:23.391Z,7.59
2023-04-16T16:06:50.509Z,7.60
2023-04-16T16:09:17.472Z,7.56
2023-04-16T16:11:44.490Z,7.48
2023-04-16T16:14:11.646Z,7.46
2023-04-16T16:16:39.855Z,7.44
2023-04-16T16:19:07.034Z,7.40
2023-04-16T16:21:33.979Z,7.36
2023-04-16T16:24:01.635Z,7.33
2023-04-16T16:26:29.225Z,7.30
2023-04-16T16:28:57.343Z,7.31
2023-04-16T16:31:24.773Z,7.28
2023-04-16T16:33:51.895Z,7.31
2023-04-16T16:36:18.900Z,7.27
2023-04-16T16:38:47.890Z,7.27
2023-04-16T16:41:14.903Z,7.34
2023-04-16T16:43:41.934Z,7.35
2023-04-16T16:46:10.008Z,7.35
2023-04-16T16:48:36.991Z,7.39
2023-04-16T16:51:03.987Z,7.43
2023-04-16T16:53:30.884Z,7.49
2023-04-16T16:55:57.727Z,7.56
2023-04-16T16:58:24.684Z,7.60
2023-04-16T17:00:51.704Z,7.61
2023-04-16T17:03:18.871Z,7.59
2023-04-16T17:05:46.225Z,7.57
2023-04-16T17:08:14.019Z,7.56
2023-04-16T17:10:41.037Z,7.57
2023-04-16T17:13:07.884Z,7.51
2023-04-16T17:15:34.910Z,7.51
2023-04-16T17:18:01.900Z,7.55
2023-04-16T17:20:28.948Z,7.60
2023-04-16T17:22:55.983Z,7.61
2023-04-16T17:25:22.928Z,7.53
2023-04-16T17:27:49.773Z,7.44
2023-04-16T17:30:17.217Z,7.39
2023-04-16T17:32:44.184Z,7.33
2023-04-16T17:35:11.554Z,7.34
2023-04-16T17:37:38.644Z,7.23
2023-04-16T17:40:08.006Z,7.19
2023-04-16T17:42:36.410Z,7.17
2023-04-16T17:45:03.713Z,7.15
2023-04-16T17:47:30.620Z,7.14
2023-04-16T17:49:57.539Z,7.17
2023-04-16T17:52:24.407Z,7.15
2023-04-16T17:54:53.332Z,7.15
2023-04-16T17:57:20.358Z,7.14
2023-04-16T17:59:47.383Z,7.18
2023-04-16T18:02:14.355Z,7.21
2023-04-16T18:04:41.499Z,7.23
2023-04-16T18:07:08.592Z,7.20
2023-04-16T18:09:36.151Z,7.19
2023-04-16T18:12:03.198Z,7.22
2023-04-16T18:14:30.080Z,7.21
2023-04-16T18:16:58.626Z,7.14
2023-04-16T18:19:25.580Z,7.13
2023-04-16T18:21:52.434Z,7.15
2023-04-16T18:24:19.502Z,7.14
2023-04-16T18:26:47.189Z,7.06
2023-04-16T18:29:14.686Z,6.98
2023-04-16T18:31:42.544Z,6.95
2023-04-16T18:34:09.937Z,6.92
2023-04-16T18:36:37.178Z,6.82
2023-04-16T18:39:04.093Z,6.81
2023-04-16T18:41:31.493Z,6.70
2023-04-16T18:43:58.940Z,6.64
2023-04-16T18:46:27.014Z,6.61
2023-04-16T18:48:54.290Z,6.58
2023-04-16T18:51:21.592Z,6.50
2023-04-16T18:53:48.623Z,6.45
2023-04-16T18:56:15.592Z,6.38
2023-04-16T18:58:43.355Z,6.37
2023-04-16T19:01:13.183Z,6.38
2023-04-16T19:03:40.159Z,6.38
2023-04-16T19:06:07.307Z,6.40
2023-04-16T19:08:34.198Z,6.42
2023-04-16T19:11:01.144Z,6.33
2023-04-16T19:13:30.648Z,6.31
2023-04-16T19:16:00.001Z,6.34
2023-04-16T19:18:27.049Z,6.46
2023-04-16T19:21:01.105Z,6.54
2023-04-16T19:23:28.323Z,6.58
2023-04-16T19:25:58.426Z,6.64
2023-04-16T19:28:25.836Z,6.67
2023-04-16T19:30:53.562Z,6.68
2023-04-16T19:33:20.621Z,6.68
2023-04-16T19:35:47.626Z,6.71
2023-04-16T19:38:14.549Z,6.72
2023-04-16T19:40:45.947Z,6.74
2023-04-16T19:43:13.126Z,6.76
2023-04-16T19:45:47.010Z,6.74
2023-04-16T19:48:14.791Z,6.77
2023-04-16T19:50:42.824Z,6.68
2023-04-16T19:53:10.490Z,6.62
2023-04-16T19:55:40.143Z,6.55
2023-04-16T19:58:07.649Z,6.50
2023-04-16T20:00:36.435Z,6.46
2023-04-16T20:03:03.693Z,6.47
2023-04-16T20:05:30.942Z,6.42
2023-04-16T20:07:57.877Z,6.40
2023-04-16T20:10:24.894Z,6.42
2023-04-16T20:12:51.912Z,6.44
2023-04-16T20:15:18.931Z,6.36
2023-04-16T20:17:46.320Z,6.34
2023-04-16T20:20:16.059Z,6.35
2023-04-16T20:22:43.555Z,6.33
2023-04-16T20:25:10.605Z,6.29
2023-04-16T20:27:37.662Z,6.30
2023-04-16T20:30:06.345Z,6.27
2023-04-16T20:32:33.434Z,6.35
2023-04-16T20:35:00.432Z,6.39
2023-04-16T20:37:29.267Z,6.35
2023-04-16T20:39:56.565Z,6.27
2023-04-16T20:42:23.654Z,6.25
2023-04-16T20:44:56.020Z,6.23
2023-04-16T20:47:23.123Z,6.25
2023-04-16T20:49:51.194Z,6.26
2023-04-16T20:52:18.292Z,6.31
2023-04-16T20:54:45.152Z,6.37
2023-04-16T20:57:12.258Z,6.40
2023-04-16T20:59:39.148Z,6.47
2023-04-16T21:02:06.358Z,6.53
2023-04-16T21:04:33.447Z,6.58
2023-04-16T21:07:03.545Z,6.62
2023-04-16T21:09:31.351Z,6.64
2023-04-16T21:11:58.439Z,6.72
2023-04-16T21:14:25.357Z,6.75
2023-04-16T21:16:52.356Z,6.76
2023-04-16T21:19:19.304Z,6.75
2023-04-16T21:21:47.027Z,6.76
2023-04-16T21:24:14.005Z,6.71
2023-04-16T21:26:41.085Z,6.70
2023-04-16T21:29:08.046Z,6.69
2023-04-16T21:31:35.032Z,6.68
2023-04-16T21:34:01.961Z,6.69
2023-04-16T21:36:32.113Z,6.69
2023-04-16T21:38:59.197Z,6.74
2023-04-16T21:41:26.799Z,6.72
2023-04-16T21:43:53.764Z,6.72
2023-04-16T21:46:21.274Z,6.68
2023-04-16T21:48:48.889Z,6.66
2023-04-16T21:51:15.935Z,6.64
2023-04-16T21:53:43.077Z,6.61
2023-04-16T21:56:09.955Z,6.62
2023-04-16T21:58:36.928Z,6.65
2023-04-16T22:01:03.818Z,6.65
2023-04-16T22:03:31.325Z,6.69
2023-04-16T22:06:02.259Z,6.71
2023-04-16T22:08:29.791Z,6.74
2023-04-16T22:11:00.336Z,6.72
2023-04-16T22:13:28.115Z,6.69
2023-04-16T22:15:55.067Z,6.67
2023-04-16T22:18:24.535Z,6.66
2023-04-16T22:20:54.965Z,6.72
2023-04-16T22:23:23.936Z,6.73
2023-04-16T22:25:53.360Z,6.72
2023-04-16T22:28:20.081Z,6.73
2023-04-16T22:30:46.908Z,6.78
2023-04-16T22:33:13.699Z,6.79
2023-04-16T22:35:40.931Z,6.75
2023-04-16T22:38:08.097Z,6.71
2023-04-16T22:40:34.997Z,6.70
2023-04-16T22:43:01.689Z,6.71
2023-04-16T22:45:29.005Z,6.71
2023-04-16T22:47:56.295Z,6.71
2023-04-16T22:50:23.332Z,6.68
2023-04-16T22:52:49.995Z,6.68
2023-04-16T22:55:17.149Z,6.67
2023-04-16T22:57:44.935Z,6.70
2023-04-16T23:00:16.141Z,6.73
2023-04-16T23:02:43.386Z,6.73
2023-04-16T23:05:10.250Z,6.71
2023-04-16T23:07:37.976Z,6.74
2023-04-16T23:10:04.838Z,6.75
2023-04-16T23:12:31.548Z,6.76
2023-04-16T23:14:58.439Z,6.77
2023-04-16T23:17:25.436Z,6.75
2023-04-16T23:19:52.364Z,6.73
2023-04-16T23:22:19.049Z,6.76
2023-04-16T23:24:46.139Z,6.77
2023-04-16T23:27:12.769Z,6.78
2023-04-16T23:29:39.465Z,6.74
2023-04-16T23:32:06.188Z,6.70
2023-04-16T23:34:33.071Z,6.66
2023-04-16T23:36:59.821Z,6.60
2023-04-16T23:39:27.698Z,6.52
2023-04-16T23:41:54.366Z,6.46
2023-04-16T23:44:21.209Z,6.39
2023-04-16T23:46:48.125Z,6.34
2023-04-16T23:49:15.056Z,6.31
2023-04-16T23:51:42.151Z,6.30
2023-04-16T23:54:08.815Z,6.30
2023-04-16T23:56:35.676Z,6.30
2023-04-16T23:59:02.365Z,6.28
